Tomini Victory — V7XE9 — position and weather

sailwx.info

Track history (hours):
 
Tides and Currents Weather Stations Pressure Air Temp Water Temp Dewpoint Dewpoint Depression Visibility Wind Speed Wind Dir Waves Ship Positions

Tomini Victory

Last reported at 2017-Dec-15 00:56 UTC. Time now 2017-Dec-15 04:30 UTC.
Position N 55°60' E 016°39'.

Length 190 m; draft 6.9 m.

Type: Cargo ship. MMSI: 538004462.

Date/timePositionNaut miles runAvg speedWind from/ knotsBaromVisibWave heightAir tempDewpointWater temp
2017-Dec-15 00:56N 55°60' E 016°39'612.9
2017-Dec-15 00:30N 55°56' E 016°32'7612.6
2017-Dec-14 18:30N 55°20' E 014°34'612.8
2017-Dec-14 18:00N 55°15' E 014°27'612.5
2017-Dec-14 17:30N 55°10' E 014°20'913.0
2017-Dec-14 16:47N 55°09' E 014°04'2813.3
2017-Dec-14 14:42N 55°12' E 013°16'313.5
2017-Dec-14 14:30N 55°12' E 013°11'713.3
2017-Dec-14 14:00N 55°13' E 012°60'613.0
2017-Dec-14 13:30N 55°16' E 012°50'713.5
2017-Dec-14 13:00N 55°18' E 012°38'611.1
2017-Dec-14 12:30N 55°24' E 012°39'612.0
2017-Dec-14 12:00N 55°29' E 012°41'4 7.5
2017-Dec-14 11:30N 55°32' E 012°46'5 9.1
2017-Dec-14 11:00N 55°36' E 012°51'4 8.3
2017-Dec-14 10:30N 55°39' E 012°56'611.9
2017-Dec-14 10:00N 55°44' E 012°52'612.8
2017-Dec-14 09:30N 55°50' E 012°46'612.2
2017-Dec-14 09:00N 55°56' E 012°44'612.3
2017-Dec-14 08:30N 56°01' E 012°40'510.7
2017-Dec-14 08:00N 56°06' E 012°34'4 8.9
2017-Dec-14 07:30N 56°08' E 012°28'5311.3
2017-Dec-14 02:48N 56°56' E 011°46'411.9
2017-Dec-14 02:27N 57°00' E 011°43'511.8
2017-Dec-14 02:00N 57°05' E 011°40'611.8
2017-Dec-14 01:30N 57°10' E 011°36'611.5
2017-Dec-14 01:00N 57°16' E 011°33'611.3
2017-Dec-14 00:30N 57°21' E 011°29'510.9
2017-Dec-14 00:00N 57°26' E 011°26'611.3
2017-Dec-13 23:30N 57°31' E 011°19'611.8
2017-Dec-13 23:00N 57°35' E 011°11'611.9
2017-Dec-13 22:30N 57°39' E 011°03'612.0
2017-Dec-13 22:00N 57°42' E 010°53'811.1
2017-Dec-13 21:19N 57°42' E 010°39'1 2.3
2017-Dec-13 21:00N 57°42' E 010°38'0 0.1
2017-Dec-13 20:28N 57°43' E 010°38'0 0.0
2017-Dec-13 19:49N 57°43' E 010°38'0 0.0
2017-Dec-13 19:28N 57°43' E 010°38'0 0.0
2017-Dec-13 18:55N 57°43' E 010°38'0 0.0
2017-Dec-13 18:25N 57°43' E 010°38'0 0.0
2017-Dec-13 17:55N 57°43' E 010°38'0 0.0
2017-Dec-13 17:28N 57°43' E 010°38'0 0.1
2017-Dec-13 16:58N 57°43' E 010°38'0 0.0
2017-Dec-13 16:28N 57°43' E 010°38'0 0.0
2017-Dec-13 15:40N 57°43' E 010°38'0 0.1
2017-Dec-13 15:28N 57°43' E 010°38'0 0.0
2017-Dec-13 14:52N 57°43' E 010°38'0 0.0
2017-Dec-13 14:28N 57°43' E 010°38'0 0.1
2017-Dec-13 13:55N 57°43' E 010°38'0 0.0
2017-Dec-13 13:22N 57°43' E 010°38'0 0.0
2017-Dec-13 12:58N 57°43' E 010°38'0 0.0
2017-Dec-13 12:28N 57°43' E 010°38'0 0.1
2017-Dec-13 11:49N 57°43' E 010°38'0 0.0
2017-Dec-13 11:28N 57°43' E 010°38'0 0.2
2017-Dec-13 10:58N 57°43' E 010°38'0 0.2
2017-Dec-13 10:28N 57°43' E 010°38'0 0.1
2017-Dec-13 09:58N 57°43' E 010°38'0 0.0
2017-Dec-13 09:28N 57°43' E 010°38'0 0.1
2017-Dec-13 08:52N 57°43' E 010°38'0 0.0
2017-Dec-13 08:28N 57°43' E 010°38'0 0.0
2017-Dec-13 07:58N 57°43' E 010°38'0 0.0
2017-Dec-13 07:28N 57°43' E 010°38'0 0.0
2017-Dec-13 06:49N 57°43' E 010°38'0 0.1
2017-Dec-13 06:22N 57°42' E 010°38'0 0.1
2017-Dec-13 05:52N 57°43' E 010°38'0 0.1
2017-Dec-13 05:25N 57°43' E 010°38'0 0.1
2017-Dec-13 04:58N 57°43' E 010°38'0 0.0
2017-Dec-13 04:28N 57°43' E 010°38'0 0.1
2017-Dec-13 03:58N 57°43' E 010°38'0 0.0
2017-Dec-13 03:22N 57°43' E 010°38'0 0.0
2017-Dec-13 02:58N 57°42' E 010°38'0 0.1
2017-Dec-13 02:28N 57°43' E 010°38'0 0.0
2017-Dec-13 01:55N 57°43' E 010°38'0 0.0
2017-Dec-13 01:28N 57°43' E 010°38'0 0.1
2017-Dec-13 00:58N 57°42' E 010°38'0 0.1
2017-Dec-13 00:28N 57°43' E 010°38'0 0.0
2017-Dec-12 23:58N 57°43' E 010°38'0 0.0
2017-Dec-12 23:25N 57°42' E 010°38'0 0.0
2017-Dec-12 22:58N 57°43' E 010°38'0 0.0
2017-Dec-12 22:28N 57°42' E 010°38'0 0.1
2017-Dec-12 21:58N 57°42' E 010°38'0 0.1
2017-Dec-12 21:28N 57°42' E 010°38'0 0.0
2017-Dec-12 20:58N 57°42' E 010°38'0 0.0
2017-Dec-12 20:25N 57°42' E 010°38'0 0.1
2017-Dec-12 19:58N 57°42' E 010°38'0 0.0
2017-Dec-12 19:28N 57°42' E 010°38'0 0.0
2017-Dec-12 18:55N 57°42' E 010°38'0 0.1
2017-Dec-12 18:28N 57°42' E 010°38'0 0.0
2017-Dec-12 17:55N 57°42' E 010°38'0 0.1
2017-Dec-12 17:28N 57°42' E 010°38'0 0.1
2017-Dec-12 17:00N 57°42' E 010°38'3 5.3
2017-Dec-12 16:30N 57°43' E 010°43'4 7.2
2017-Dec-12 16:00N 57°47' E 010°45'610.3
2017-Dec-12 15:28N 57°47' E 010°34'510.3
2017-Dec-12 15:00N 57°47' E 010°25'212 8.2
2017-Dec-11 13:02N 55°15' E 005°56'012.1
2017-Dec-11 13:00N 55°15' E 005°55'612.1
2017-Dec-11 12:30N 55°10' E 005°49'612.2
2017-Dec-11 12:00N 55°05' E 005°44'612.2
2017-Dec-11 11:29N 54°60' E 005°38'22811.7
2017-Dec-10 15:56N 51°42' E 002°29'711.7
2017-Dec-10 15:22N 51°36' E 002°23'512.1
2017-Dec-10 14:59N 51°33' E 002°19'611.9
2017-Dec-10 14:30N 51°28' E 002°13'611.2
2017-Dec-10 14:00N 51°23' E 002°11'611.8
2017-Dec-10 13:31N 51°17' E 002°07'612.0
2017-Dec-10 13:00N 51°13' E 002°01'713.2
2017-Dec-10 12:30N 51°09' E 001°51'613.0
2017-Dec-10 12:00N 51°05' E 001°43'713.3
2017-Dec-10 11:31N 51°01' E 001°36'713.2
2017-Dec-10 11:00N 50°56' E 001°29'3911.3
2017-Dec-10 07:34N 50°28' E 000°46'111.6
2017-Dec-10 07:30N 50°27' E 000°45'911.3
2017-Dec-10 06:41N 50°25' E 000°31'511.4
2017-Dec-10 06:13N 50°24' E 000°23'311.5
2017-Dec-10 05:58N 50°23' E 000°19'611.4
2017-Dec-10 05:29N 50°21' E 000°10'611.7
2017-Dec-10 05:00N 50°20' E 000°02'611.9
2017-Dec-10 04:30N 50°19' W 000°07'612.2
2017-Dec-10 04:00N 50°17' W 000°16'9414.5
2017-Dec-09 21:33N 49°52' W 002°37'513.3
2017-Dec-09 21:09N 49°50' W 002°45'213.1
2017-Dec-09 20:59N 49°50' W 002°49'1212.7
2017-Dec-09 20:02N 49°45' W 003°05'012.5
2017-Dec-09 20:00N 49°45' W 003°06'812.5
2017-Dec-09 19:20N 49°41' W 003°17'  
2017-Dec-07 07:31N 39°18' W 010°21'213.0
2017-Dec-07 07:21N 39°16' W 010°21'1213.3
2017-Dec-07 06:24N 39°03' W 010°23'  
Track history (hours):
 
Tides and Currents Weather Stations Pressure Air Temp Water Temp Dewpoint Dewpoint Depression Visibility Wind Speed Wind Dir Waves Ship Positions

Tomini Victory

Last reported at 2017-Dec-15 00:56 UTC. Time now 2017-Dec-15 04:30 UTC.
Position N 55°60' E 016°39'.

Length 190 m; draft 6.9 m.

Type: Cargo ship. MMSI: 538004462.

Date/timePositionNaut miles runAvg speedWind from/ knotsBaromVisibWave heightAir tempDewpointWater temp
2017-Dec-15 00:56N 55°60' E 016°39'612.9
2017-Dec-15 00:30N 55°56' E 016°32'7612.6
2017-Dec-14 18:30N 55°20' E 014°34'612.8
2017-Dec-14 18:00N 55°15' E 014°27'612.5
2017-Dec-14 17:30N 55°10' E 014°20'913.0
2017-Dec-14 16:47N 55°09' E 014°04'2813.3
2017-Dec-14 14:42N 55°12' E 013°16'313.5
2017-Dec-14 14:30N 55°12' E 013°11'713.3
2017-Dec-14 14:00N 55°13' E 012°60'613.0
2017-Dec-14 13:30N 55°16' E 012°50'713.5
2017-Dec-14 13:00N 55°18' E 012°38'611.1
2017-Dec-14 12:30N 55°24' E 012°39'612.0
2017-Dec-14 12:00N 55°29' E 012°41'4 7.5
2017-Dec-14 11:30N 55°32' E 012°46'5 9.1
2017-Dec-14 11:00N 55°36' E 012°51'4 8.3
2017-Dec-14 10:30N 55°39' E 012°56'611.9
2017-Dec-14 10:00N 55°44' E 012°52'612.8
2017-Dec-14 09:30N 55°50' E 012°46'612.2
2017-Dec-14 09:00N 55°56' E 012°44'612.3
2017-Dec-14 08:30N 56°01' E 012°40'510.7
2017-Dec-14 08:00N 56°06' E 012°34'4 8.9
2017-Dec-14 07:30N 56°08' E 012°28'5311.3
2017-Dec-14 02:48N 56°56' E 011°46'411.9
2017-Dec-14 02:27N 57°00' E 011°43'511.8
2017-Dec-14 02:00N 57°05' E 011°40'611.8
2017-Dec-14 01:30N 57°10' E 011°36'611.5
2017-Dec-14 01:00N 57°16' E 011°33'611.3
2017-Dec-14 00:30N 57°21' E 011°29'510.9
2017-Dec-14 00:00N 57°26' E 011°26'611.3
2017-Dec-13 23:30N 57°31' E 011°19'611.8
2017-Dec-13 23:00N 57°35' E 011°11'611.9
2017-Dec-13 22:30N 57°39' E 011°03'612.0
2017-Dec-13 22:00N 57°42' E 010°53'811.1
2017-Dec-13 21:19N 57°42' E 010°39'1 2.3
2017-Dec-13 21:00N 57°42' E 010°38'0 0.1
2017-Dec-13 20:28N 57°43' E 010°38'0 0.0
2017-Dec-13 19:49N 57°43' E 010°38'0 0.0
2017-Dec-13 19:28N 57°43' E 010°38'0 0.0
2017-Dec-13 18:55N 57°43' E 010°38'0 0.0
2017-Dec-13 18:25N 57°43' E 010°38'0 0.0
2017-Dec-13 17:55N 57°43' E 010°38'0 0.0
2017-Dec-13 17:28N 57°43' E 010°38'0 0.1
2017-Dec-13 16:58N 57°43' E 010°38'0 0.0
2017-Dec-13 16:28N 57°43' E 010°38'0 0.0
2017-Dec-13 15:40N 57°43' E 010°38'0 0.1
2017-Dec-13 15:28N 57°43' E 010°38'0 0.0
2017-Dec-13 14:52N 57°43' E 010°38'0 0.0
2017-Dec-13 14:28N 57°43' E 010°38'0 0.1
2017-Dec-13 13:55N 57°43' E 010°38'0 0.0
2017-Dec-13 13:22N 57°43' E 010°38'0 0.0
2017-Dec-13 12:58N 57°43' E 010°38'0 0.0
2017-Dec-13 12:28N 57°43' E 010°38'0 0.1
2017-Dec-13 11:49N 57°43' E 010°38'0 0.0
2017-Dec-13 11:28N 57°43' E 010°38'0 0.2
2017-Dec-13 10:58N 57°43' E 010°38'0 0.2
2017-Dec-13 10:28N 57°43' E 010°38'0 0.1
2017-Dec-13 09:58N 57°43' E 010°38'0 0.0
2017-Dec-13 09:28N 57°43' E 010°38'0 0.1
2017-Dec-13 08:52N 57°43' E 010°38'0 0.0
2017-Dec-13 08:28N 57°43' E 010°38'0 0.0
2017-Dec-13 07:58N 57°43' E 010°38'0 0.0
2017-Dec-13 07:28N 57°43' E 010°38'0 0.0
2017-Dec-13 06:49N 57°43' E 010°38'0 0.1
2017-Dec-13 06:22N 57°42' E 010°38'0 0.1
2017-Dec-13 05:52N 57°43' E 010°38'0 0.1
2017-Dec-13 05:25N 57°43' E 010°38'0 0.1
2017-Dec-13 04:58N 57°43' E 010°38'0 0.0
2017-Dec-13 04:28N 57°43' E 010°38'0 0.1
2017-Dec-13 03:58N 57°43' E 010°38'0 0.0
2017-Dec-13 03:22N 57°43' E 010°38'0 0.0
2017-Dec-13 02:58N 57°42' E 010°38'0 0.1
2017-Dec-13 02:28N 57°43' E 010°38'0 0.0
2017-Dec-13 01:55N 57°43' E 010°38'0 0.0
2017-Dec-13 01:28N 57°43' E 010°38'0 0.1
2017-Dec-13 00:58N 57°42' E 010°38'0 0.1
2017-Dec-13 00:28N 57°43' E 010°38'0 0.0
2017-Dec-12 23:58N 57°43' E 010°38'0 0.0
2017-Dec-12 23:25N 57°42' E 010°38'0 0.0
2017-Dec-12 22:58N 57°43' E 010°38'0 0.0
2017-Dec-12 22:28N 57°42' E 010°38'0 0.1
2017-Dec-12 21:58N 57°42' E 010°38'0 0.1
2017-Dec-12 21:28N 57°42' E 010°38'0 0.0
2017-Dec-12 20:58N 57°42' E 010°38'0 0.0
2017-Dec-12 20:25N 57°42' E 010°38'0 0.1
2017-Dec-12 19:58N 57°42' E 010°38'0 0.0
2017-Dec-12 19:28N 57°42' E 010°38'0 0.0
2017-Dec-12 18:55N 57°42' E 010°38'0 0.1
2017-Dec-12 18:28N 57°42' E 010°38'0 0.0
2017-Dec-12 17:55N 57°42' E 010°38'0 0.1
2017-Dec-12 17:28N 57°42' E 010°38'0 0.1
2017-Dec-12 17:00N 57°42' E 010°38'3 5.3
2017-Dec-12 16:30N 57°43' E 010°43'4 7.2
2017-Dec-12 16:00N 57°47' E 010°45'610.3
2017-Dec-12 15:28N 57°47' E 010°34'510.3
2017-Dec-12 15:00N 57°47' E 010°25'212 8.2
2017-Dec-11 13:02N 55°15' E 005°56'012.1
2017-Dec-11 13:00N 55°15' E 005°55'612.1
2017-Dec-11 12:30N 55°10' E 005°49'612.2
2017-Dec-11 12:00N 55°05' E 005°44'612.2
2017-Dec-11 11:29N 54°60' E 005°38'22811.7
2017-Dec-10 15:56N 51°42' E 002°29'711.7
2017-Dec-10 15:22N 51°36' E 002°23'512.1
2017-Dec-10 14:59N 51°33' E 002°19'611.9
2017-Dec-10 14:30N 51°28' E 002°13'611.2
2017-Dec-10 14:00N 51°23' E 002°11'611.8
2017-Dec-10 13:31N 51°17' E 002°07'612.0
2017-Dec-10 13:00N 51°13' E 002°01'713.2
2017-Dec-10 12:30N 51°09' E 001°51'613.0
2017-Dec-10 12:00N 51°05' E 001°43'713.3
2017-Dec-10 11:31N 51°01' E 001°36'713.2
2017-Dec-10 11:00N 50°56' E 001°29'3911.3
2017-Dec-10 07:34N 50°28' E 000°46'111.6
2017-Dec-10 07:30N 50°27' E 000°45'911.3
2017-Dec-10 06:41N 50°25' E 000°31'511.4
2017-Dec-10 06:13N 50°24' E 000°23'311.5
2017-Dec-10 05:58N 50°23' E 000°19'611.4
2017-Dec-10 05:29N 50°21' E 000°10'611.7
2017-Dec-10 05:00N 50°20' E 000°02'611.9
2017-Dec-10 04:30N 50°19' W 000°07'612.2
2017-Dec-10 04:00N 50°17' W 000°16'9414.5
2017-Dec-09 21:33N 49°52' W 002°37'513.3
2017-Dec-09 21:09N 49°50' W 002°45'213.1
2017-Dec-09 20:59N 49°50' W 002°49'1212.7
2017-Dec-09 20:02N 49°45' W 003°05'012.5
2017-Dec-09 20:00N 49°45' W 003°06'812.5
2017-Dec-09 19:20N 49°41' W 003°17'  
2017-Dec-07 07:31N 39°18' W 010°21'213.0
2017-Dec-07 07:21N 39°16' W 010°21'1213.3
2017-Dec-07 06:24N 39°03' W 010°23'  

Dump ship's entire track history